createdAt,value
2018-06-12T04:39:42.555Z,5
2018-06-12T04:40:02.730Z,5
2018-06-12T04:40:22.888Z,5
2018-06-12T04:45:51.816Z,10
2018-06-12T04:46:12.182Z,10
2018-06-12T04:46:32.449Z,10
2018-06-12T04:46:52.618Z,10
2018-06-12T04:48:56.031Z,10
2018-06-12T04:51:02.356Z,10
2018-06-12T04:51:22.553Z,10
2018-06-12T05:11:25.547Z,15
2018-06-12T05:13:19.925Z,20
2018-06-12T05:13:40.735Z,20
2018-06-12T05:14:00.887Z,20
2018-06-12T05:14:21.051Z,20
2018-06-12T05:14:41.238Z,20
2018-06-12T05:15:01.460Z,20
2018-06-12T05:15:21.617Z,20
2018-06-12T05:16:38.063Z,20
2018-06-12T05:16:58.227Z,20
2018-06-12T05:18:04.776Z,20
2018-06-12T05:18:24.980Z,20
2018-06-12T05:19:19.179Z,20
2018-06-12T05:19:39.438Z,25
2018-06-12T05:19:59.697Z,25
2018-06-12T05:20:19.869Z,25
2018-06-12T05:20:40.126Z,25
2018-06-12T05:21:00.339Z,20
2018-06-12T05:21:20.490Z,20
2018-06-12T05:21:40.675Z,20
2018-06-12T05:22:00.916Z,20
2018-06-12T05:22:21.095Z,20
2018-06-12T05:22:41.299Z,20
2018-06-12T05:23:01.556Z,20
2018-06-12T05:24:10.503Z,20
2018-06-12T05:24:30.772Z,20
2018-06-12T05:25:24.880Z,20
2018-06-12T05:25:45.033Z,20
2018-06-12T05:26:39.239Z,20
2018-06-12T05:26:59.563Z,20
2018-06-12T05:27:53.679Z,20
2018-06-12T05:28:13.872Z,20
2018-06-12T05:28:55.695Z,20
2018-06-12T05:29:15.837Z,20
2018-06-12T05:30:10.047Z,20
2018-06-12T05:31:06.023Z,20
2018-06-12T05:31:26.140Z,20
2018-06-12T05:32:20.244Z,20
2018-06-12T05:32:40.434Z,20
2018-06-12T05:33:34.620Z,20
2018-06-12T05:33:54.763Z,20
2018-06-12T05:34:48.944Z,20
2018-06-12T05:35:09.100Z,20
2018-06-12T05:36:09.860Z,20
2018-06-12T05:36:30.019Z,20
2018-06-12T05:37:18.165Z,20
2018-06-12T05:37:38.294Z,20
2018-06-12T05:38:39.154Z,20
2018-06-12T05:38:59.299Z,20
2018-06-12T05:40:06.297Z,20
2018-06-12T05:40:26.457Z,20
2018-06-12T05:41:33.526Z,20
2018-06-12T05:41:53.748Z,20
2018-06-12T05:49:00.087Z,20
2018-06-12T05:49:43.560Z,20
2018-06-12T05:50:27.084Z,20
2018-06-12T05:50:47.260Z,20
2018-06-12T05:51:54.160Z,20
2018-06-12T05:52:14.360Z,20
2018-06-12T05:53:02.740Z,20
2018-06-12T05:53:22.984Z,20
2018-06-12T05:53:43.136Z,20
2018-06-12T05:54:42.385Z,20
2018-06-12T05:55:02.543Z,20
2018-06-12T05:55:22.712Z,20
2018-06-12T05:55:42.912Z,20
2018-06-12T05:56:03.048Z,20
2018-06-12T05:56:24.117Z,20
2018-06-12T05:56:44.300Z,20
2018-06-12T05:57:55.660Z,25
2018-06-12T05:58:15.835Z,25
2018-06-12T05:59:10.530Z,25
2018-06-12T05:59:30.762Z,25
2018-06-12T06:07:09.371Z,20
2018-06-12T06:07:29.562Z,20
2018-06-12T06:08:30.473Z,20
2018-06-12T06:08:50.717Z,20
2018-06-12T06:09:51.429Z,20
2018-06-12T06:10:11.581Z,25
2018-06-12T06:11:06.111Z,25
2018-06-12T06:11:26.286Z,25
2018-06-12T06:11:46.494Z,25
2018-06-12T06:12:06.707Z,25
2018-06-12T06:12:26.882Z,25
2018-06-12T06:12:47.068Z,25
2018-06-12T06:13:07.276Z,25
2018-06-12T06:13:27.430Z,25
2018-06-12T06:13:47.644Z,25
2018-06-12T06:14:07.900Z,25
2018-06-12T06:14:28.059Z,25
2018-06-12T06:14:48.205Z,25
2018-06-12T06:15:08.400Z,25
2018-06-12T06:15:28.571Z,25
2018-06-12T06:15:48.734Z,25
2018-06-12T06:16:08.903Z,30
2018-06-12T06:16:29.039Z,30
2018-06-12T06:16:49.209Z,30
2018-06-12T06:17:09.526Z,30
2018-06-12T06:17:29.689Z,30
2018-06-12T06:17:49.872Z,30
2018-06-12T06:18:10.059Z,30
2018-06-12T06:18:30.244Z,30
2018-06-12T06:18:50.453Z,30
2018-06-12T06:19:10.639Z,30
2018-06-12T06:19:30.798Z,35
2018-06-12T06:19:50.975Z,35
2018-06-12T06:20:11.141Z,35
2018-06-12T06:20:31.298Z,35
2018-06-12T06:20:51.471Z,35
2018-06-12T06:21:11.634Z,35
2018-06-12T06:21:31.806Z,35
2018-06-12T06:21:51.969Z,35
2018-06-12T06:22:12.119Z,35
2018-06-12T06:22:32.358Z,35
2018-06-12T06:22:52.588Z,35
2018-06-12T06:23:12.799Z,35
2018-06-12T06:23:32.984Z,35
2018-06-12T06:23:53.191Z,35
2018-06-12T06:24:13.365Z,35
2018-06-12T06:24:33.536Z,35
2018-06-12T06:24:53.693Z,35
2018-06-12T06:25:13.894Z,35
2018-06-12T06:25:34.052Z,35
2018-06-12T06:25:54.225Z,35
2018-06-12T06:26:14.384Z,35
2018-06-12T06:26:34.537Z,35
2018-06-12T06:26:54.731Z,35
2018-06-12T06:27:14.881Z,35
2018-06-12T06:27:35.046Z,35
2018-06-12T06:27:55.232Z,35
2018-06-12T06:28:15.384Z,35
2018-06-12T06:28:35.532Z,35
2018-06-12T06:28:55.698Z,35
2018-06-12T06:29:16.031Z,35
2018-06-12T06:29:36.238Z,35
2018-06-12T06:29:56.430Z,35
2018-06-12T06:30:16.593Z,35
2018-06-12T06:30:36.759Z,35
2018-06-12T06:30:56.930Z,35
2018-06-12T06:31:17.085Z,35
2018-06-12T06:31:37.385Z,35
2018-06-12T06:31:57.561Z,35
2018-06-12T06:32:17.710Z,35
2018-06-12T06:32:37.863Z,35
2018-06-12T06:32:58.080Z,35
2018-06-12T06:33:18.248Z,35
2018-06-12T06:33:38.467Z,35
2018-06-12T06:33:58.654Z,35
2018-06-12T06:34:18.868Z,35
2018-06-12T06:34:39.074Z,35
2018-06-12T06:34:59.356Z,35
2018-06-12T06:35:19.570Z,35
2018-06-12T06:35:39.731Z,35
2018-06-12T06:35:59.908Z,35
2018-06-12T06:36:20.229Z,35
2018-06-12T06:36:40.450Z,35
2018-06-12T06:37:00.647Z,35
2018-06-12T06:37:20.808Z,35
2018-06-12T06:37:40.973Z,35
2018-06-12T06:38:01.105Z,35
2018-06-12T06:38:21.260Z,35
2018-06-12T06:38:41.424Z,35
2018-06-12T06:39:01.577Z,35
2018-06-12T06:39:21.777Z,35
2018-06-12T06:39:42.028Z,35
2018-06-12T06:40:02.206Z,30
2018-06-12T06:40:22.443Z,35
2018-06-12T06:40:42.573Z,35
2018-06-12T06:41:02.776Z,35
2018-06-12T06:41:22.954Z,35
2018-06-12T06:41:43.141Z,30
2018-06-12T06:42:03.382Z,30
2018-06-12T06:42:23.590Z,30
2018-06-12T06:42:43.765Z,30
2018-06-12T06:43:03.960Z,30
2018-06-12T06:43:24.197Z,30
2018-06-12T06:43:44.384Z,30
2018-06-12T06:44:04.573Z,30
2018-06-12T06:44:24.759Z,30
2018-06-12T06:44:44.947Z,30
2018-06-12T06:45:05.125Z,30
2018-06-12T06:45:25.281Z,30
2018-06-12T06:45:45.500Z,30
2018-06-12T06:46:05.662Z,30
2018-06-12T06:46:25.834Z,30
2018-06-12T06:46:46.128Z,30
2018-06-12T06:47:06.342Z,30
2018-06-12T06:47:26.503Z,30
2018-06-12T06:47:46.647Z,25
2018-06-12T06:48:06.826Z,25
2018-06-12T06:48:26.968Z,25
2018-06-12T06:48:47.167Z,25
2018-06-12T06:49:07.413Z,25
2018-06-12T06:49:27.547Z,25
2018-06-12T06:49:47.757Z,25
2018-06-12T06:50:07.946Z,25
2018-06-12T06:50:28.111Z,25
2018-06-12T06:50:48.276Z,25
2018-06-12T06:51:08.485Z,25
2018-06-12T06:51:28.620Z,25
2018-06-12T06:51:48.864Z,25
2018-06-12T06:52:09.016Z,25
2018-06-12T06:52:29.182Z,25
2018-06-12T06:52:49.348Z,25
2018-06-12T06:53:09.532Z,20
2018-06-12T06:53:29.714Z,20
2018-06-12T06:53:49.868Z,20
2018-06-12T06:54:10.037Z,20
2018-06-12T06:54:30.220Z,20
2018-06-12T06:54:50.381Z,20
2018-06-12T06:55:10.580Z,20
2018-06-12T06:55:30.816Z,20
2018-06-12T06:55:50.998Z,20
2018-06-12T06:56:11.207Z,20
2018-06-12T06:56:31.385Z,20
2018-06-12T06:56:51.546Z,20
2018-06-12T06:57:11.741Z,20
2018-06-12T06:57:31.903Z,20
2018-06-12T06:57:52.065Z,20
2018-06-12T06:58:12.229Z,20
2018-06-12T06:58:32.403Z,20
2018-06-12T06:58:52.694Z,20
2018-06-12T06:59:12.892Z,20
2018-06-12T06:59:33.046Z,20
2018-06-12T06:59:53.244Z,20
2018-06-12T07:00:13.460Z,20
2018-06-12T07:00:33.622Z,20
2018-06-12T07:00:53.800Z,25
2018-06-12T07:01:13.962Z,25
2018-06-12T07:01:34.188Z,25
2018-06-12T07:01:54.362Z,25
2018-06-12T07:02:14.571Z,25
2018-06-12T07:02:34.806Z,25
2018-06-12T07:02:54.982Z,25
2018-06-12T07:03:15.160Z,25
2018-06-12T07:03:35.349Z,25
2018-06-12T07:03:55.508Z,25
2018-06-12T07:04:15.701Z,30
2018-06-12T07:04:35.909Z,30
2018-06-12T07:04:56.090Z,30
2018-06-12T07:05:16.268Z,30
2018-06-12T07:05:36.464Z,30
2018-06-12T07:05:56.736Z,30
2018-06-12T07:06:16.886Z,30
2018-06-12T07:06:37.046Z,30
2018-06-12T07:06:57.216Z,35
2018-06-12T07:07:17.414Z,35
2018-06-12T07:07:37.550Z,35
2018-06-12T07:07:57.712Z,35
2018-06-12T07:08:17.928Z,35
2018-06-12T07:08:38.163Z,35
2018-06-12T07:08:58.387Z,35
2018-06-12T07:09:18.518Z,40
2018-06-12T07:09:38.684Z,40
2018-06-12T07:09:58.824Z,40
2018-06-12T07:10:18.981Z,40
2018-06-12T07:10:39.160Z,40
2018-06-12T07:10:59.337Z,40
2018-06-12T07:11:19.509Z,40
2018-06-12T07:11:39.653Z,45
2018-06-12T07:11:59.829Z,45
2018-06-12T07:12:20.002Z,45
2018-06-12T07:12:40.171Z,45
2018-06-12T07:13:00.348Z,45
2018-06-12T07:13:20.514Z,45
2018-06-12T07:13:40.666Z,45
2018-06-12T07:14:00.863Z,45
2018-06-12T07:14:21.055Z,45
2018-06-12T07:14:41.264Z,45
2018-06-12T07:15:01.482Z,45
2018-06-12T07:15:21.752Z,45
2018-06-12T07:15:41.919Z,45
2018-06-12T07:16:02.077Z,45
2018-06-12T07:16:22.217Z,40
2018-06-12T07:16:42.391Z,40
2018-06-12T07:17:02.550Z,40
2018-06-12T07:17:22.731Z,40
2018-06-12T07:17:42.887Z,40
2018-06-12T07:18:03.052Z,40
2018-06-12T07:18:23.227Z,40
2018-06-12T07:18:43.412Z,40
2018-06-12T07:19:03.558Z,45
2018-06-12T07:19:23.716Z,45
2018-06-12T07:19:43.888Z,45
2018-06-12T07:20:04.049Z,45
2018-06-12T07:20:24.258Z,45
2018-06-12T07:20:44.448Z,45
2018-06-12T07:21:04.651Z,50
2018-06-12T07:21:24.812Z,50
2018-06-12T07:21:44.951Z,50
2018-06-12T07:22:05.120Z,50
2018-06-12T07:22:25.348Z,50
2018-06-12T07:22:45.538Z,50
2018-06-12T07:23:05.696Z,50
2018-06-12T07:23:25.856Z,50
2018-06-12T07:23:46.055Z,50
2018-06-12T07:24:06.200Z,55
2018-06-12T07:24:26.373Z,55
2018-06-12T07:24:46.554Z,55
2018-06-12T07:25:06.730Z,55
2018-06-12T07:25:26.883Z,60
2018-06-12T07:25:47.164Z,60
2018-06-12T07:26:07.329Z,60
2018-06-12T07:26:27.480Z,60
2018-06-12T07:26:47.649Z,65
2018-06-12T07:27:07.804Z,65
2018-06-12T07:27:28.065Z,65
2018-06-12T07:27:48.244Z,65
2018-06-12T07:28:08.445Z,65
2018-06-12T07:28:28.640Z,65
2018-06-12T07:28:48.822Z,65
2018-06-12T07:29:08.992Z,65
2018-06-12T07:29:29.210Z,65
2018-06-12T07:29:49.418Z,65
2018-06-12T07:30:09.650Z,65
2018-06-12T07:30:29.839Z,65
2018-06-12T07:30:50.014Z,65
2018-06-12T07:31:10.249Z,65
2018-06-12T07:31:30.412Z,70
2018-06-12T07:31:50.588Z,65
2018-06-12T07:32:10.795Z,65
2018-06-12T07:32:30.970Z,65
2018-06-12T07:32:51.140Z,65
2018-06-12T07:33:11.369Z,65
2018-06-12T07:33:31.587Z,65
2018-06-12T07:33:51.767Z,70
2018-06-12T07:34:12.001Z,70
2018-06-12T07:34:32.177Z,70
2018-06-12T07:34:52.396Z,70
2018-06-12T07:35:12.577Z,70
2018-06-12T07:35:32.714Z,70
2018-06-12T07:35:52.975Z,70
2018-06-12T07:36:13.169Z,75
2018-06-12T07:36:33.313Z,75
2018-06-12T07:36:53.486Z,75
2018-06-12T07:37:13.660Z,75
2018-06-12T07:37:33.924Z,80
2018-06-12T07:37:54.075Z,80
2018-06-12T07:38:14.254Z,80
2018-06-12T07:38:34.398Z,80
2018-06-12T07:38:54.526Z,75
2018-06-12T07:39:14.703Z,75
2018-06-12T07:39:34.841Z,75
2018-06-12T07:39:55.016Z,75
2018-06-12T07:40:15.162Z,75
2018-06-12T07:40:35.328Z,75
2018-06-12T07:40:55.497Z,75
2018-06-12T07:41:15.692Z,75
2018-06-12T07:41:35.893Z,75
2018-06-12T07:41:56.107Z,75
2018-06-12T07:42:16.277Z,80
2018-06-12T07:42:36.436Z,80
2018-06-12T07:42:56.637Z,80
2018-06-12T07:43:16.851Z,80
2018-06-12T07:43:37.109Z,80
2018-06-12T07:43:57.228Z,80
2018-06-12T07:44:17.430Z,80
2018-06-12T07:44:37.634Z,80
2018-06-12T07:44:57.863Z,80
2018-06-12T07:45:18.055Z,80
2018-06-12T07:45:38.289Z,80
2018-06-12T07:45:58.381Z,80
2018-06-12T07:46:18.565Z,80
2018-06-12T07:46:38.743Z,80
2018-06-12T07:46:58.924Z,80
2018-06-12T07:47:19.179Z,80
2018-06-12T07:47:39.345Z,80
2018-06-12T07:47:59.540Z,80
2018-06-12T07:48:19.725Z,80
2018-06-12T07:48:39.933Z,80
2018-06-12T07:49:00.128Z,80
2018-06-12T07:49:20.303Z,80
2018-06-12T07:49:40.473Z,75
2018-06-12T07:50:00.660Z,75
2018-06-12T07:50:20.807Z,75
2018-06-12T07:50:40.986Z,75
2018-06-12T07:51:01.129Z,75
2018-06-12T07:51:21.304Z,75
2018-06-12T07:51:41.526Z,75
2018-06-12T07:52:01.735Z,75
2018-06-12T07:52:21.904Z,75
2018-06-12T07:52:42.114Z,75
2018-06-12T07:53:02.271Z,75
2018-06-12T07:53:22.465Z,75
2018-06-12T07:53:42.621Z,80
2018-06-12T07:54:02.807Z,80
2018-06-12T07:54:22.974Z,80
2018-06-12T07:54:43.135Z,80
2018-06-12T07:55:03.331Z,80
2018-06-12T07:55:23.476Z,80
2018-06-12T07:55:43.662Z,80
2018-06-12T07:56:03.873Z,80
2018-06-12T07:56:24.052Z,80
2018-06-12T07:56:44.209Z,75
2018-06-12T07:57:04.374Z,80
2018-06-12T07:57:24.546Z,75
2018-06-12T07:57:44.704Z,75
2018-06-12T07:58:04.858Z,75
2018-06-12T07:58:25.049Z,75
2018-06-12T07:58:45.188Z,75
2018-06-12T07:59:05.413Z,80
2018-06-12T07:59:25.651Z,80
2018-06-12T07:59:45.847Z,80
2018-06-12T08:00:05.978Z,80
2018-06-12T08:00:26.149Z,80
2018-06-12T08:00:46.324Z,80
2018-06-12T08:01:06.603Z,85
2018-06-12T08:01:26.763Z,85
2018-06-12T08:01:46.928Z,90
2018-06-12T08:02:07.082Z,90
2018-06-12T08:02:27.250Z,100
2018-06-12T08:02:47.456Z,90
2018-06-12T08:03:07.662Z,90
2018-06-12T08:03:27.939Z,90
2018-06-12T08:03:48.199Z,95
2018-06-12T08:04:08.348Z,90
2018-06-12T08:04:28.570Z,90
2018-06-12T08:04:48.818Z,90
2018-06-12T08:05:08.968Z,85
2018-06-12T08:05:29.125Z,85
2018-06-12T08:05:49.268Z,85
2018-06-12T08:06:09.528Z,85
2018-06-12T08:06:29.758Z,85
2018-06-12T08:06:49.971Z,85
2018-06-12T08:07:10.264Z,85
2018-06-12T08:07:30.422Z,85
2018-06-12T08:07:50.687Z,80
2018-06-12T08:08:10.887Z,80
2018-06-12T08:08:31.042Z,80
2018-06-12T08:08:51.252Z,80
2018-06-12T08:09:11.444Z,80
2018-06-12T08:09:31.657Z,80
2018-06-12T08:09:51.849Z,80
2018-06-12T08:10:12.046Z,85
2018-06-12T08:10:32.305Z,85
2018-06-12T08:10:52.516Z,85
2018-06-12T08:11:12.784Z,85
2018-06-12T08:11:32.962Z,80
2018-06-12T08:11:53.171Z,80
2018-06-12T08:12:13.354Z,80
2018-06-12T08:12:33.598Z,80
2018-06-12T08:12:53.873Z,80
2018-06-12T08:13:14.121Z,75
2018-06-12T08:13:34.284Z,75
2018-06-12T08:13:54.475Z,75
2018-06-12T08:14:14.748Z,80
2018-06-12T08:14:34.982Z,80
2018-06-12T08:14:55.229Z,75
2018-06-12T08:15:15.472Z,75
2018-06-12T08:15:35.660Z,75
2018-06-12T08:15:55.887Z,75
2018-06-12T08:16:16.066Z,75
2018-06-12T08:16:36.282Z,75
2018-06-12T08:16:56.477Z,75
2018-06-12T08:17:16.702Z,75
2018-06-12T08:17:36.940Z,75
2018-06-12T08:17:57.133Z,75
2018-06-12T08:18:17.400Z,75
2018-06-12T08:18:37.635Z,75
2018-06-12T08:18:57.834Z,70
2018-06-12T08:19:18.148Z,70
2018-06-12T08:19:38.391Z,65
2018-06-12T08:19:58.605Z,65
2018-06-12T08:20:18.858Z,65
2018-06-12T08:20:39.005Z,60
2018-06-12T08:20:59.299Z,60
2018-06-12T08:21:19.503Z,60
2018-06-12T08:21:39.767Z,60
2018-06-12T08:22:00.016Z,60
2018-06-12T08:22:20.310Z,60
2018-06-12T08:22:40.569Z,65
2018-06-12T08:23:00.760Z,65
2018-06-12T08:23:21.006Z,65
2018-06-12T08:23:41.271Z,65
2018-06-12T08:24:01.594Z,65
2018-06-12T08:24:21.822Z,65
2018-06-12T08:24:42.199Z,65
2018-06-12T08:25:02.515Z,65
2018-06-12T08:25:22.821Z,65
2018-06-12T08:25:42.987Z,65
2018-06-12T08:26:03.136Z,65
2018-06-12T08:26:23.329Z,60
2018-06-12T08:26:43.534Z,60
2018-06-12T08:27:03.738Z,60
2018-06-12T08:27:23.915Z,65
2018-06-12T08:27:44.174Z,65
2018-06-12T08:28:04.389Z,65
2018-06-12T08:28:24.645Z,70
2018-06-12T08:28:44.863Z,75
2018-06-12T08:29:05.074Z,75
2018-06-12T08:29:25.375Z,75
2018-06-12T08:29:45.702Z,75
2018-06-12T08:30:06.609Z,75
2018-06-12T08:30:26.621Z,75
2018-06-12T08:30:47.001Z,70
2018-06-12T08:31:07.180Z,70
2018-06-12T08:31:27.360Z,75
2018-06-12T08:31:47.562Z,75
2018-06-12T08:32:08.672Z,75
2018-06-12T08:32:28.874Z,75
2018-06-12T08:32:49.105Z,80
2018-06-12T08:33:09.324Z,80
2018-06-12T08:33:29.621Z,85
2018-06-12T08:33:49.841Z,80
2018-06-12T08:34:10.109Z,80
2018-06-12T08:34:30.288Z,80
2018-06-12T08:34:50.620Z,75
2018-06-12T08:35:10.808Z,75
2018-06-12T08:35:31.086Z,75
2018-06-12T08:35:51.231Z,75
2018-06-12T08:36:11.378Z,75
2018-06-12T08:36:31.538Z,75
2018-06-12T08:36:51.690Z,75
2018-06-12T08:37:12.693Z,75
2018-06-12T08:37:32.900Z,75
2018-06-12T08:37:53.110Z,80
2018-06-12T08:38:13.367Z,80
2018-06-12T08:38:33.612Z,80
2018-06-12T08:38:53.826Z,80
2018-06-12T08:39:14.028Z,80
2018-06-12T08:39:34.190Z,80
2018-06-12T08:39:54.433Z,80
2018-06-12T08:40:14.548Z,80
2018-06-12T08:40:34.750Z,80
2018-06-12T08:40:55.102Z,85
2018-06-12T08:41:15.451Z,85
2018-06-12T08:41:35.732Z,85
2018-06-12T08:41:55.976Z,85
2018-06-12T08:42:16.245Z,85
2018-06-12T08:42:36.411Z,85
2018-06-12T08:42:56.599Z,85
2018-06-12T08:43:16.823Z,85
2018-06-12T08:43:37.091Z,85
2018-06-12T08:43:57.309Z,85
2018-06-12T08:44:17.523Z,85
2018-06-12T08:44:37.746Z,85
2018-06-12T08:44:58.012Z,85
2018-06-12T08:45:18.167Z,85
2018-06-12T08:45:38.415Z,85
2018-06-12T08:45:58.758Z,85
2018-06-12T08:46:18.951Z,85
2018-06-12T08:46:39.175Z,80
2018-06-12T08:46:59.349Z,80
2018-06-12T08:47:19.564Z,80
2018-06-12T08:47:39.804Z,80
2018-06-12T08:48:00.056Z,80
2018-06-12T08:48:20.233Z,80
2018-06-12T08:48:40.368Z,80
2018-06-12T08:49:00.543Z,80
2018-06-12T08:49:20.699Z,85
2018-06-12T08:49:40.911Z,85
2018-06-12T08:50:01.065Z,85
2018-06-12T08:50:21.281Z,85
2018-06-12T08:50:41.457Z,85
2018-06-12T08:51:01.668Z,85
2018-06-12T08:51:21.920Z,85
2018-06-12T08:51:42.108Z,80
2018-06-12T08:52:02.329Z,80
2018-06-12T08:52:22.508Z,80
2018-06-12T08:52:42.678Z,80
2018-06-12T08:53:03.035Z,80
2018-06-12T08:53:24.040Z,80
2018-06-12T08:53:44.278Z,80
2018-06-12T08:54:04.461Z,75
2018-06-12T08:54:24.665Z,70
2018-06-12T08:54:44.850Z,70
2018-06-12T08:55:05.164Z,70
2018-06-12T08:55:25.411Z,70
2018-06-12T08:55:46.264Z,70
2018-06-12T08:56:06.570Z,70
2018-06-12T08:56:26.733Z,75
2018-06-12T08:56:46.949Z,75
2018-06-12T08:57:07.220Z,80
2018-06-12T08:57:27.387Z,80
2018-06-12T08:57:47.547Z,75
2018-06-12T08:58:07.711Z,75
2018-06-12T08:58:28.000Z,75
2018-06-12T08:58:48.181Z,70
2018-06-12T08:59:08.344Z,65
2018-06-12T08:59:28.661Z,65
2018-06-12T08:59:48.876Z,65
2018-06-12T09:00:09.012Z,65
2018-06-12T09:00:29.219Z,65
2018-06-12T09:00:49.448Z,65
2018-06-12T09:01:09.601Z,70
2018-06-12T09:01:29.824Z,70
2018-06-12T09:01:50.017Z,70
2018-06-12T09:02:10.230Z,70
2018-06-12T09:02:30.403Z,75
2018-06-12T09:02:50.571Z,75
2018-06-12T09:03:10.842Z,75
2018-06-12T09:03:31.217Z,75
2018-06-12T09:03:51.512Z,75
2018-06-12T09:04:11.766Z,75
2018-06-12T09:04:32.007Z,75
2018-06-12T09:04:51.984Z,75
2018-06-12T09:05:12.174Z,75
2018-06-12T09:05:32.340Z,75
2018-06-12T09:05:52.538Z,70
2018-06-12T09:06:12.698Z,70
2018-06-12T09:06:32.981Z,65
2018-06-12T09:06:53.123Z,65
2018-06-12T09:07:13.286Z,65
2018-06-12T09:07:33.468Z,60
2018-06-12T09:07:53.747Z,55
2018-06-12T09:08:13.943Z,55
2018-06-12T09:08:34.130Z,55
2018-06-12T09:08:54.341Z,55
2018-06-12T09:09:14.567Z,55
2018-06-12T09:09:34.804Z,50
2018-06-12T09:09:54.978Z,50
2018-06-12T09:10:15.230Z,50
2018-06-12T09:10:35.377Z,50
2018-06-12T09:10:55.588Z,50
2018-06-12T09:11:15.782Z,50
2018-06-12T09:11:36.004Z,50
2018-06-12T09:11:56.224Z,50
2018-06-12T09:12:16.398Z,50
2018-06-12T09:12:36.593Z,50
2018-06-12T09:12:56.767Z,50
2018-06-12T09:13:16.974Z,50
2018-06-12T09:13:37.114Z,50
2018-06-12T09:13:57.304Z,50
2018-06-12T09:14:17.996Z,50
2018-06-12T09:14:38.169Z,50
2018-06-12T09:14:58.397Z,50
2018-06-12T09:15:18.522Z,50
2018-06-12T09:15:38.729Z,50
2018-06-12T09:15:58.911Z,55
2018-06-12T09:16:19.170Z,55
2018-06-12T09:16:39.343Z,55
2018-06-12T09:16:59.565Z,55
2018-06-12T09:17:19.752Z,55
2018-06-12T09:17:40.027Z,55
2018-06-12T09:18:00.243Z,55
2018-06-12T09:18:20.403Z,55
2018-06-12T09:18:40.675Z,60
2018-06-12T09:19:00.980Z,60
2018-06-12T09:19:21.268Z,60
2018-06-12T09:19:41.486Z,65
2018-06-12T09:20:01.638Z,65
2018-06-12T09:20:21.815Z,65
2018-06-12T09:20:42.158Z,65
2018-06-12T09:21:02.359Z,65
2018-06-12T09:21:22.712Z,65
2018-06-12T09:21:43.001Z,65
2018-06-12T09:22:03.191Z,65
2018-06-12T09:22:23.382Z,65
2018-06-12T09:22:43.505Z,65
2018-06-12T09:23:03.701Z,65
2018-06-12T09:23:23.855Z,65
2018-06-12T09:23:44.214Z,65
2018-06-12T09:24:04.452Z,60
2018-06-12T09:24:24.669Z,60
2018-06-12T09:24:44.875Z,60
2018-06-12T09:25:05.177Z,65
2018-06-12T09:25:25.375Z,65
2018-06-12T09:25:45.539Z,70
2018-06-12T09:26:05.811Z,70
2018-06-12T09:26:26.015Z,75
2018-06-12T09:26:46.297Z,75
2018-06-12T09:27:06.545Z,80
2018-06-12T09:27:26.819Z,80
2018-06-12T09:27:47.018Z,80
2018-06-12T09:28:07.210Z,80
2018-06-12T09:28:27.381Z,85
2018-06-12T09:28:47.540Z,85
2018-06-12T09:29:07.720Z,85
2018-06-12T09:29:27.881Z,85
2018-06-12T09:29:48.061Z,90
2018-06-12T09:30:08.230Z,90
2018-06-12T09:30:28.443Z,90
2018-06-12T09:30:48.550Z,90
2018-06-12T09:31:08.790Z,90
2018-06-12T09:31:29.026Z,90
2018-06-12T09:31:49.227Z,95
2018-06-12T09:32:09.416Z,95
2018-06-12T09:32:29.565Z,95
2018-06-12T09:32:49.825Z,95
2018-06-12T09:33:10.005Z,95
2018-06-12T09:33:30.213Z,95
2018-06-12T09:33:50.398Z,95
2018-06-12T09:34:10.551Z,95
2018-06-12T09:34:30.713Z,90
2018-06-12T09:34:50.956Z,90
2018-06-12T09:35:11.097Z,90
2018-06-12T09:35:31.313Z,90
2018-06-12T09:35:51.500Z,85
2018-06-12T09:36:11.688Z,85
2018-06-12T09:36:31.984Z,85
2018-06-12T09:36:52.214Z,90
2018-06-12T09:37:12.388Z,90
2018-06-12T09:37:32.571Z,90
2018-06-12T09:37:52.763Z,90
2018-06-12T09:38:12.942Z,90
2018-06-12T09:38:33.232Z,90
2018-06-12T09:38:53.428Z,90
2018-06-12T09:39:13.592Z,90
2018-06-12T09:39:33.749Z,90
2018-06-12T09:39:53.933Z,90
2018-06-12T09:40:14.193Z,90
2018-06-12T09:40:34.355Z,90
2018-06-12T09:40:54.546Z,90
2018-06-12T09:41:14.701Z,90
2018-06-12T09:41:34.881Z,90
2018-06-12T09:41:55.090Z,90
2018-06-12T09:42:15.342Z,85
2018-06-12T09:42:35.554Z,85
2018-06-12T09:42:55.754Z,90
2018-06-12T09:43:15.974Z,85
2018-06-12T09:43:36.120Z,85
2018-06-12T09:43:56.349Z,85
2018-06-12T09:44:16.543Z,85
2018-06-12T09:44:37.547Z,85
2018-06-12T09:44:57.761Z,85
2018-06-12T09:45:17.939Z,85
2018-06-12T09:45:38.167Z,85
2018-06-12T09:45:58.376Z,85
2018-06-12T09:46:18.558Z,85
2018-06-12T09:46:38.794Z,85
2018-06-12T09:46:59.001Z,85
2018-06-12T09:47:19.193Z,80
2018-06-12T09:47:39.439Z,80
2018-06-12T09:47:59.695Z,75
2018-06-12T09:48:19.914Z,75
2018-06-12T09:48:40.082Z,75
2018-06-12T09:49:00.259Z,75
2018-06-12T09:49:20.517Z,75
2018-06-12T09:49:40.711Z,75
2018-06-12T09:50:00.900Z,75
2018-06-12T09:50:21.052Z,75
2018-06-12T09:50:41.318Z,75
2018-06-12T09:51:01.487Z,75
2018-06-12T09:51:22.568Z,80
2018-06-12T09:51:42.766Z,80
2018-06-12T09:52:03.053Z,80
2018-06-12T09:52:23.275Z,80
2018-06-12T09:52:43.498Z,80
2018-06-12T09:53:03.692Z,80
2018-06-12T09:53:23.872Z,80
2018-06-12T09:53:44.056Z,80
2018-06-12T09:54:04.226Z,80
2018-06-12T09:54:24.396Z,85
2018-06-12T09:54:44.688Z,85
2018-06-12T09:55:04.890Z,85
2018-06-12T09:55:25.065Z,85
2018-06-12T09:55:45.230Z,90
2018-06-12T09:56:05.529Z,90
2018-06-12T09:56:25.714Z,90
2018-06-12T09:56:45.876Z,90
2018-06-12T09:57:06.121Z,90
2018-06-12T09:57:26.800Z,90
2018-06-12T09:57:47.217Z,90
2018-06-12T09:58:07.525Z,90
2018-06-12T09:58:27.801Z,90
2018-06-12T09:58:48.087Z,90
2018-06-12T09:59:08.366Z,90
2018-06-12T09:59:28.572Z,90
2018-06-12T09:59:48.870Z,90
2018-06-12T10:00:09.083Z,90
2018-06-12T10:00:29.345Z,90
2018-06-12T10:00:49.575Z,90
2018-06-12T10:01:10.550Z,90
2018-06-12T10:01:30.828Z,90
2018-06-12T10:01:51.518Z,90
2018-06-12T10:02:11.743Z,95
2018-06-12T10:02:32.021Z,90
2018-06-12T10:02:52.246Z,95
2018-06-12T10:03:12.412Z,95
2018-06-12T10:03:32.777Z,95
2018-06-12T10:03:53.739Z,95
2018-06-12T10:04:13.980Z,100
2018-06-12T10:04:34.217Z,100
2018-06-12T10:04:54.226Z,100
2018-06-12T10:05:14.420Z,95
2018-06-12T10:05:34.645Z,100
2018-06-12T10:05:54.899Z,95
2018-06-12T10:06:15.078Z,95
2018-06-12T10:06:35.338Z,95
2018-06-12T10:06:55.493Z,95
2018-06-12T10:07:15.646Z,100
2018-06-12T10:07:35.834Z,100
2018-06-12T10:07:56.113Z,100
2018-06-12T10:08:16.273Z,95
2018-06-12T10:08:36.446Z,95
2018-06-12T10:08:56.634Z,95
2018-06-12T10:09:16.819Z,95
2018-06-12T10:09:36.981Z,95
2018-06-12T10:09:57.247Z,90
2018-06-12T10:10:17.456Z,90
2018-06-12T10:10:37.602Z,90
2018-06-12T10:10:57.789Z,85
2018-06-12T10:11:18.051Z,85
2018-06-12T10:11:38.238Z,80
2018-06-12T10:11:59.156Z,80
2018-06-12T10:12:19.328Z,80
2018-06-12T10:12:39.512Z,75
2018-06-12T10:12:59.844Z,75
2018-06-12T10:13:20.047Z,75
2018-06-12T10:13:40.389Z,75
2018-06-12T10:14:00.613Z,85
2018-06-12T10:14:20.878Z,75
2018-06-12T10:14:41.101Z,75
2018-06-12T10:15:01.266Z,75
2018-06-12T10:15:21.486Z,80
2018-06-12T10:15:41.652Z,85
2018-06-12T10:16:01.820Z,90
2018-06-12T10:16:21.991Z,95
2018-06-12T10:16:42.648Z,95
2018-06-12T10:17:02.887Z,95
2018-06-12T10:17:23.162Z,95
2018-06-12T10:17:43.361Z,95
2018-06-12T10:18:03.558Z,95
2018-06-12T10:18:23.778Z,95
2018-06-12T10:18:43.936Z,95
2018-06-12T10:19:04.148Z,95
2018-06-12T10:19:24.348Z,95
2018-06-12T10:19:44.588Z,95
2018-06-12T10:20:04.832Z,95
2018-06-12T10:20:25.175Z,95
2018-06-12T10:20:45.395Z,95
2018-06-12T10:21:05.568Z,85
2018-06-12T10:21:25.778Z,85
2018-06-12T10:21:45.954Z,85
2018-06-12T10:22:06.718Z,85
2018-06-12T10:22:26.899Z,85
2018-06-12T10:22:46.916Z,85
2018-06-12T10:23:07.071Z,85
2018-06-12T10:23:27.253Z,85
2018-06-12T10:23:47.413Z,90
2018-06-12T10:24:07.617Z,90
2018-06-12T10:24:27.803Z,90
2018-06-12T10:24:47.934Z,95
2018-06-12T10:25:08.209Z,95
2018-06-12T10:25:28.341Z,100
2018-06-12T10:25:48.507Z,95
2018-06-12T10:26:08.746Z,90
2018-06-12T10:26:28.982Z,95
2018-06-12T10:26:49.209Z,85
2018-06-12T10:27:09.400Z,80
2018-06-12T10:27:29.623Z,80
2018-06-12T10:27:49.769Z,80
2018-06-12T10:28:10.074Z,80
2018-06-12T10:28:30.361Z,80
2018-06-12T10:28:50.561Z,80
2018-06-12T10:29:10.718Z,80